Aviation Digital Data Service (ADDS)

Output produced by METARs form (1307 UTC 17 September 2019)
found at http://www.aviationweather.gov/metar/data/
 
VTSS 171300Z 24004KT 9999 FEW020 BKN100 28/23 Q1010 NOSIG
VTSS 171230Z 24003KT 9999 FEW020 BKN100 28/24 Q1009 NOSIG
VTSS 171200Z 24004KT 9999 FEW020 BKN100 29/23 Q1009 NOSIG
VTSS 171130Z 24005KT 9999 FEW020 BKN100 29/24 Q1009 NOSIG
VTSS 171100Z 24006KT 9999 FEW020 BKN100 29/23 Q1008 NOSIG
VTSS 171030Z 25007KT 9999 FEW020 BKN100 30/23 Q1008 NOSIG
VTSS 171000Z 26009KT 9999 FEW020 BKN100 30/23 Q1007 NOSIG
VTSS 170930Z 28007KT 230V290 9999 FEW020 BKN100 31/24 Q1007 NOSIG
VTSS 170900Z 29005KT 250V320 9999 VCSH FEW018CB SCT020 BKN100 31/24 Q1007 NOSIG
VTSS 170830Z 25009KT 230V290 9999 VCSH FEW018CB SCT020 BKN100 32/22 Q1007 NOSIG
VTSS 170800Z 24009KT 9999 FEW018CB SCT020 33/22 Q1007 NOSIG
VTSS 170730Z 24009KT 9999 SCT020 SCT100 33/22 Q1007 NOSIG
VTSS 170700Z 24009KT 120V260 9999 SCT020 SCT100 33/23 Q1008 NOSIG
VTSS 170630Z 23010KT 100V260 9999 FEW020 SCT100 32/22 Q1008 NOSIG
VTSS 170600Z VRB07KT 9999 FEW020 32/23 Q1008 NOSIG
VTSS 170530Z 22008KT 090V260 9999 FEW020 31/24 Q1009 NOSIG
VTSS 170500Z 20007KT 090V260 9999 FEW020 30/25 Q1010 NOSIG
VTSS 170430Z 22006KT 100V270 9999 FEW020 30/24 Q1011 NOSIG
VTSS 170400Z 24007KT 100V260 9999 FEW020 29/25 Q1011 NOSIG
VTSS 170330Z 22006KT 100V260 9999 FEW020 BKN100 28/25 Q1011 NOSIG
VTSS 170300Z 23005KT 090V260 9999 FEW020 BKN100 28/24 Q1011 NOSIG
VTSS 170230Z 19004KT 090V260 9999 FEW020 BKN100 27/24 Q1011 NOSIG
VTSS 170200Z 24005KT 090V260 9999 FEW020 BKN100 26/24 Q1011 NOSIG
VTSS 170130Z 23007KT 180V260 9999 FEW020 BKN100 26/23 Q1011 NOSIG
VTSS 170100Z 22006KT 100V260 9999 VCSH FEW018CB SCT020 BKN100 26/24 Q1011 NOSIG
VTSS 170030Z VRB02KT 9999 FEW020 BKN100 25/24 Q1010 NOSIG
VTSS 170000Z 24002KT 9999 FEW020 BKN100 24/23 Q1010 NOSIG
VTSS 162330Z 00000KT 9999 FEW020 BKN100 24/23 Q1009 NOSIG
VTSS 162300Z VRB02KT 9999 FEW020 BKN100 24/23 Q1009 NOSIG
VTSS 162230Z VRB02KT 9999 FEW020 BKN100 24/23 Q1009 NOSIG
VTSS 162200Z 25003KT 9999 FEW020 BKN100 24/23 Q1008 NOSIG
VTSS 162130Z 00000KT 9999 FEW020 BKN100 24/23 Q1008 NOSIG
VTSS 162100Z 00000KT 9999 FEW020 BKN100 23/23 Q1008 NOSIG
VTSS 162030Z VRB02KT 9999 FEW020 BKN100 23/23 Q1008 NOSIG
VTSS 162000Z 12003KT 9999 FEW020 BKN100 24/23 Q1008 NOSIG
VTSS 161930Z 00000KT 9999 FEW020 BKN100 24/23 Q1008 NOSIG
VTSS 161900Z 00000KT 9999 FEW020 BKN100 24/23 Q1008 NOSIG
VTSS 161830Z 12002KT 9999 FEW020 BKN100 24/23 Q1009 NOSIG
VTSS 161800Z 00000KT 9999 FEW020 BKN100 24/23 Q1009 NOSIG
VTSS 161730Z 00000KT 9999 FEW020 BKN100 24/23 Q1009 NOSIG
VTSS 161700Z 12003KT 9999 SCT020 BKN100 24/23 Q1010 NOSIG
VTSS 161630Z 12003KT 100V200 9999 FEW020 SCT100 24/23 Q1010 NOSIG
VTSS 161600Z 10004KT 9999 SCT020 BKN100 25/24 Q1010 NOSIG
VTSS 161530Z 21005KT 090V260 9999 -RA SCT020 SCT028 BKN100 25/24 Q1010 NOSIG
VTSS 161500Z 14004KT 090V260 9999 FEW020 BKN100 26/24 Q1010 NOSIG
VTSS 161430Z 13003KT 090V260 9999 FEW020 BKN100 25/24 Q1010 NOSIG
VTSS 161400Z 23003KT 090V260 9999 FEW020 BKN100 26/24 Q1009 NOSIG
VTSS 161330Z 23003KT 090V260 9999 FEW020 BKN100 26/24 Q1009 NOSIG
TAF VTSS 171100Z 1712/1812 25005KT 9999 FEW020 BKN100 
     TEMPO 1800/1804 5000 RA SCT015 BKN100 
     TEMPO 1806/1812 24010G20KT 5000 TSRA FEW016CB SCT018 BKN100